sensor_id;sensor_type;location;lat;lon;timestamp;P1;durP1;ratioP1;P2;durP2;ratioP2
8007;SDS011;4049;49.468;11.200;2024-03-07T00:02:04;24.97;;;14.33;;
8007;SDS011;4049;49.468;11.200;2024-03-07T00:04:34;28.97;;;14.17;;
8007;SDS011;4049;49.468;11.200;2024-03-07T00:07:01;26.03;;;13.70;;
8007;SDS011;4049;49.468;11.200;2024-03-07T00:09:28;24.30;;;14.03;;
8007;SDS011;4049;49.468;11.200;2024-03-07T00:11:55;21.13;;;13.13;;
8007;SDS011;4049;49.468;11.200;2024-03-07T00:14:22;28.97;;;13.97;;
8007;SDS011;4049;49.468;11.200;2024-03-07T00:16:52;25.50;;;14.37;;
8007;SDS011;4049;49.468;11.200;2024-03-07T00:19:19;26.37;;;14.03;;
8007;SDS011;4049;49.468;11.200;2024-03-07T00:21:47;26.77;;;15.03;;
8007;SDS011;4049;49.468;11.200;2024-03-07T00:24:14;27.07;;;15.40;;
8007;SDS011;4049;49.468;11.200;2024-03-07T00:26:41;25.07;;;13.80;;
8007;SDS011;4049;49.468;11.200;2024-03-07T00:29:08;26.13;;;14.20;;
8007;SDS011;4049;49.468;11.200;2024-03-07T00:31:35;22.60;;;13.97;;
8007;SDS011;4049;49.468;11.200;2024-03-07T00:34:02;29.30;;;14.70;;
8007;SDS011;4049;49.468;11.200;2024-03-07T00:36:29;27.30;;;13.80;;
8007;SDS011;4049;49.468;11.200;2024-03-07T00:38:58;24.17;;;13.53;;
8007;SDS011;4049;49.468;11.200;2024-03-07T00:41:25;25.50;;;14.57;;
8007;SDS011;4049;49.468;11.200;2024-03-07T00:43:51;26.73;;;12.70;;
8007;SDS011;4049;49.468;11.200;2024-03-07T00:46:18;24.13;;;13.23;;
8007;SDS011;4049;49.468;11.200;2024-03-07T00:48:45;24.70;;;14.00;;
8007;SDS011;4049;49.468;11.200;2024-03-07T00:51:12;26.57;;;13.53;;
8007;SDS011;4049;49.468;11.200;2024-03-07T00:53:39;25.97;;;14.20;;
8007;SDS011;4049;49.468;11.200;2024-03-07T00:56:08;26.13;;;13.60;;
8007;SDS011;4049;49.468;11.200;2024-03-07T00:58:34;26.10;;;13.87;;
8007;SDS011;4049;49.468;11.200;2024-03-07T01:01:00;23.40;;;13.57;;
8007;SDS011;4049;49.468;11.200;2024-03-07T01:03:28;26.50;;;14.93;;
8007;SDS011;4049;49.468;11.200;2024-03-07T01:05:55;23.53;;;13.00;;
8007;SDS011;4049;49.468;11.200;2024-03-07T01:08:21;24.73;;;13.40;;
8007;SDS011;4049;49.468;11.200;2024-03-07T01:10:47;23.83;;;12.80;;
8007;SDS011;4049;49.468;11.200;2024-03-07T01:13:16;26.83;;;13.67;;
8007;SDS011;4049;49.468;11.200;2024-03-07T01:15:47;24.10;;;13.83;;
8007;SDS011;4049;49.468;11.200;2024-03-07T01:18:15;26.17;;;13.10;;
8007;SDS011;4049;49.468;11.200;2024-03-07T01:20:42;25.47;;;13.83;;
8007;SDS011;4049;49.468;11.200;2024-03-07T01:23:09;26.97;;;13.07;;
8007;SDS011;4049;49.468;11.200;2024-03-07T01:25:36;23.97;;;12.27;;
8007;SDS011;4049;49.468;11.200;2024-03-07T01:28:03;24.70;;;12.90;;
8007;SDS011;4049;49.468;11.200;2024-03-07T01:30:31;27.30;;;13.33;;
8007;SDS011;4049;49.468;11.200;2024-03-07T01:32:58;26.90;;;13.37;;
8007;SDS011;4049;49.468;11.200;2024-03-07T01:35:25;21.93;;;12.57;;
8007;SDS011;4049;49.468;11.200;2024-03-07T01:37:51;27.50;;;11.67;;
8007;SDS011;4049;49.468;11.200;2024-03-07T01:40:19;21.80;;;11.53;;
8007;SDS011;4049;49.468;11.200;2024-03-07T01:42:47;18.63;;;11.57;;
8007;SDS011;4049;49.468;11.200;2024-03-07T01:45:14;22.00;;;10.93;;
8007;SDS011;4049;49.468;11.200;2024-03-07T01:47:43;19.77;;;11.23;;
8007;SDS011;4049;49.468;11.200;2024-03-07T01:50:10;18.47;;;10.83;;
8007;SDS011;4049;49.468;11.200;2024-03-07T01:52:39;19.00;;;10.27;;
8007;SDS011;4049;49.468;11.200;2024-03-07T01:55:07;17.33;;;9.53;;
8007;SDS011;4049;49.468;11.200;2024-03-07T01:57:36;19.63;;;10.13;;
8007;SDS011;4049;49.468;11.200;2024-03-07T02:00:03;18.67;;;9.20;;
8007;SDS011;4049;49.468;11.200;2024-03-07T02:02:31;20.00;;;11.27;;
8007;SDS011;4049;49.468;11.200;2024-03-07T02:05:00;21.53;;;11.93;;
8007;SDS011;4049;49.468;11.200;2024-03-07T02:07:27;18.10;;;11.27;;
8007;SDS011;4049;49.468;11.200;2024-03-07T02:09:58;20.30;;;11.77;;
8007;SDS011;4049;49.468;11.200;2024-03-07T02:12:26;20.30;;;11.33;;
8007;SDS011;4049;49.468;11.200;2024-03-07T02:14:54;21.93;;;12.07;;
8007;SDS011;4049;49.468;11.200;2024-03-07T02:17:22;18.50;;;11.10;;
8007;SDS011;4049;49.468;11.200;2024-03-07T02:19:49;19.77;;;10.50;;
8007;SDS011;4049;49.468;11.200;2024-03-07T02:22:17;19.43;;;10.60;;
8007;SDS011;4049;49.468;11.200;2024-03-07T02:24:44;20.87;;;10.67;;
8007;SDS011;4049;49.468;11.200;2024-03-07T02:27:11;16.20;;;10.33;;
8007;SDS011;4049;49.468;11.200;2024-03-07T02:29:39;15.30;;;8.87;;
8007;SDS011;4049;49.468;11.200;2024-03-07T02:32:06;16.93;;;9.27;;
8007;SDS011;4049;49.468;11.200;2024-03-07T02:34:33;16.17;;;9.60;;
8007;SDS011;4049;49.468;11.200;2024-03-07T02:37:00;15.97;;;8.60;;
8007;SDS011;4049;49.468;11.200;2024-03-07T02:39:29;16.93;;;9.63;;
8007;SDS011;4049;49.468;11.200;2024-03-07T02:41:55;15.70;;;9.37;;
8007;SDS011;4049;49.468;11.200;2024-03-07T02:44:22;14.13;;;8.60;;
8007;SDS011;4049;49.468;11.200;2024-03-07T02:46:49;15.40;;;9.30;;
8007;SDS011;4049;49.468;11.200;2024-03-07T02:49:16;13.20;;;7.93;;
8007;SDS011;4049;49.468;11.200;2024-03-07T02:51:43;14.33;;;8.67;;
8007;SDS011;4049;49.468;11.200;2024-03-07T02:54:10;14.73;;;8.43;;
8007;SDS011;4049;49.468;11.200;2024-03-07T02:56:38;13.50;;;8.20;;
8007;SDS011;4049;49.468;11.200;2024-03-07T02:59:07;14.37;;;8.70;;
8007;SDS011;4049;49.468;11.200;2024-03-07T03:01:34;16.33;;;9.03;;
8007;SDS011;4049;49.468;11.200;2024-03-07T03:04:01;14.23;;;8.17;;
8007;SDS011;4049;49.468;11.200;2024-03-07T03:06:28;15.93;;;8.80;;
8007;SDS011;4049;49.468;11.200;2024-03-07T03:08:54;14.83;;;8.47;;
8007;SDS011;4049;49.468;11.200;2024-03-07T03:11:21;16.03;;;9.20;;
8007;SDS011;4049;49.468;11.200;2024-03-07T03:13:49;16.33;;;8.80;;
8007;SDS011;4049;49.468;11.200;2024-03-07T03:16:16;14.73;;;8.27;;
8007;SDS011;4049;49.468;11.200;2024-03-07T03:18:43;14.40;;;8.53;;
8007;SDS011;4049;49.468;11.200;2024-03-07T03:21:10;15.97;;;8.93;;
8007;SDS011;4049;49.468;11.200;2024-03-07T03:23:37;16.13;;;9.40;;
8007;SDS011;4049;49.468;11.200;2024-03-07T03:26:05;14.87;;;8.50;;
8007;SDS011;4049;49.468;11.200;2024-03-07T03:28:32;13.53;;;8.43;;
8007;SDS011;4049;49.468;11.200;2024-03-07T03:31:00;14.43;;;8.40;;
8007;SDS011;4049;49.468;11.200;2024-03-07T03:33:29;12.10;;;7.73;;
8007;SDS011;4049;49.468;11.200;2024-03-07T03:35:57;14.23;;;8.20;;
8007;SDS011;4049;49.468;11.200;2024-03-07T03:38:24;16.37;;;8.93;;
8007;SDS011;4049;49.468;11.200;2024-03-07T03:40:51;12.37;;;7.43;;
8007;SDS011;4049;49.468;11.200;2024-03-07T03:43:17;14.60;;;8.07;;
8007;SDS011;4049;49.468;11.200;2024-03-07T03:45:44;15.73;;;8.80;;
8007;SDS011;4049;49.468;11.200;2024-03-07T03:48:14;14.83;;;8.50;;
8007;SDS011;4049;49.468;11.200;2024-03-07T03:50:40;13.27;;;8.47;;
8007;SDS011;4049;49.468;11.200;2024-03-07T03:53:07;13.37;;;8.47;;
8007;SDS011;4049;49.468;11.200;2024-03-07T03:55:37;15.30;;;8.73;;
8007;SDS011;4049;49.468;11.200;2024-03-07T03:58:04;13.20;;;7.83;;
8007;SDS011;4049;49.468;11.200;2024-03-07T04:00:31;13.77;;;8.33;;
8007;SDS011;4049;49.468;11.200;2024-03-07T04:02:58;14.63;;;8.43;;
8007;SDS011;4049;49.468;11.200;2024-03-07T04:05:27;17.43;;;9.17;;
8007;SDS011;4049;49.468;11.200;2024-03-07T04:07:54;13.47;;;8.43;;
8007;SDS011;4049;49.468;11.200;2024-03-07T04:10:21;20.07;;;9.20;;
8007;SDS011;4049;49.468;11.200;2024-03-07T04:12:48;16.33;;;8.10;;
8007;SDS011;4049;49.468;11.200;2024-03-07T04:15:15;18.13;;;8.80;;
8007;SDS011;4049;49.468;11.200;2024-03-07T04:17:42;14.20;;;8.90;;
8007;SDS011;4049;49.468;11.200;2024-03-07T04:20:10;17.27;;;9.27;;
8007;SDS011;4049;49.468;11.200;2024-03-07T04:22:40;14.37;;;8.33;;
8007;SDS011;4049;49.468;11.200;2024-03-07T04:25:07;14.63;;;8.43;;
8007;SDS011;4049;49.468;11.200;2024-03-07T04:27:34;14.57;;;8.47;;
8007;SDS011;4049;49.468;11.200;2024-03-07T04:30:05;16.13;;;8.63;;
8007;SDS011;4049;49.468;11.200;2024-03-07T04:32:34;14.27;;;8.57;;
8007;SDS011;4049;49.468;11.200;2024-03-07T04:35:02;14.30;;;9.53;;
8007;SDS011;4049;49.468;11.200;2024-03-07T04:37:32;16.27;;;8.97;;
8007;SDS011;4049;49.468;11.200;2024-03-07T04:40:03;16.13;;;9.67;;
8007;SDS011;4049;49.468;11.200;2024-03-07T04:42:40;15.53;;;8.27;;
8007;SDS011;4049;49.468;11.200;2024-03-07T04:45:07;13.37;;;8.00;;
8007;SDS011;4049;49.468;11.200;2024-03-07T04:47:38;15.43;;;8.43;;
8007;SDS011;4049;49.468;11.200;2024-03-07T04:50:05;15.60;;;9.13;;
8007;SDS011;4049;49.468;11.200;2024-03-07T04:52:35;14.40;;;8.73;;
8007;SDS011;4049;49.468;11.200;2024-03-07T04:55:04;13.57;;;8.17;;
8007;SDS011;4049;49.468;11.200;2024-03-07T04:57:33;16.20;;;9.53;;
8007;SDS011;4049;49.468;11.200;2024-03-07T05:00:00;16.87;;;8.63;;
8007;SDS011;4049;49.468;11.200;2024-03-07T05:02:32;16.40;;;8.73;;
8007;SDS011;4049;49.468;11.200;2024-03-07T05:04:59;12.73;;;7.87;;
8007;SDS011;4049;49.468;11.200;2024-03-07T05:07:26;15.20;;;9.13;;
8007;SDS011;4049;49.468;11.200;2024-03-07T05:09:52;14.07;;;8.40;;
8007;SDS011;4049;49.468;11.200;2024-03-07T05:12:21;15.67;;;9.40;;
8007;SDS011;4049;49.468;11.200;2024-03-07T05:14:47;14.47;;;8.50;;
8007;SDS011;4049;49.468;11.200;2024-03-07T05:17:14;14.77;;;8.37;;
8007;SDS011;4049;49.468;11.200;2024-03-07T05:19:44;14.93;;;8.73;;
8007;SDS011;4049;49.468;11.200;2024-03-07T05:22:14;16.40;;;8.83;;
8007;SDS011;4049;49.468;11.200;2024-03-07T05:24:43;17.73;;;9.63;;
8007;SDS011;4049;49.468;11.200;2024-03-07T05:27:09;18.97;;;9.80;;
8007;SDS011;4049;49.468;11.200;2024-03-07T05:29:39;16.77;;;9.07;;
8007;SDS011;4049;49.468;11.200;2024-03-07T05:32:20;20.93;;;10.03;;
8007;SDS011;4049;49.468;11.200;2024-03-07T05:34:47;17.97;;;9.30;;
8007;SDS011;4049;49.468;11.200;2024-03-07T05:37:14;17.63;;;9.60;;
8007;SDS011;4049;49.468;11.200;2024-03-07T05:39:41;18.23;;;9.87;;
8007;SDS011;4049;49.468;11.200;2024-03-07T05:42:08;18.47;;;9.47;;
8007;SDS011;4049;49.468;11.200;2024-03-07T05:44:40;19.37;;;9.60;;
8007;SDS011;4049;49.468;11.200;2024-03-07T05:47:07;19.80;;;10.13;;
8007;SDS011;4049;49.468;11.200;2024-03-07T05:49:35;17.93;;;10.00;;
8007;SDS011;4049;49.468;11.200;2024-03-07T05:52:02;15.90;;;9.17;;
8007;SDS011;4049;49.468;11.200;2024-03-07T05:54:29;21.43;;;11.10;;
8007;SDS011;4049;49.468;11.200;2024-03-07T05:56:56;19.20;;;9.70;;
8007;SDS011;4049;49.468;11.200;2024-03-07T05:59:23;19.97;;;11.40;;
8007;SDS011;4049;49.468;11.200;2024-03-07T06:01:51;21.40;;;11.07;;
8007;SDS011;4049;49.468;11.200;2024-03-07T06:04:19;18.53;;;10.20;;
8007;SDS011;4049;49.468;11.200;2024-03-07T06:06:46;17.17;;;9.57;;
8007;SDS011;4049;49.468;11.200;2024-03-07T06:09:13;19.00;;;11.70;;
8007;SDS011;4049;49.468;11.200;2024-03-07T06:11:42;18.17;;;10.53;;
8007;SDS011;4049;49.468;11.200;2024-03-07T06:14:09;18.57;;;10.20;;
8007;SDS011;4049;49.468;11.200;2024-03-07T06:16:39;19.80;;;10.60;;
8007;SDS011;4049;49.468;11.200;2024-03-07T06:19:07;22.33;;;10.80;;
8007;SDS011;4049;49.468;11.200;2024-03-07T06:21:36;23.97;;;11.57;;
8007;SDS011;4049;49.468;11.200;2024-03-07T06:24:04;21.07;;;11.27;;
8007;SDS011;4049;49.468;11.200;2024-03-07T06:26:33;17.80;;;10.57;;
8007;SDS011;4049;49.468;11.200;2024-03-07T06:29:11;22.43;;;11.20;;
8007;SDS011;4049;49.468;11.200;2024-03-07T06:31:38;22.00;;;10.67;;
8007;SDS011;4049;49.468;11.200;2024-03-07T06:34:05;21.57;;;11.53;;
8007;SDS011;4049;49.468;11.200;2024-03-07T06:36:34;18.53;;;11.50;;
8007;SDS011;4049;49.468;11.200;2024-03-07T06:39:01;19.90;;;11.03;;
8007;SDS011;4049;49.468;11.200;2024-03-07T06:41:30;24.27;;;12.57;;
8007;SDS011;4049;49.468;11.200;2024-03-07T06:43:57;25.47;;;13.40;;
8007;SDS011;4049;49.468;11.200;2024-03-07T06:46:24;24.73;;;12.77;;
8007;SDS011;4049;49.468;11.200;2024-03-07T06:48:50;23.03;;;11.33;;
8007;SDS011;4049;49.468;11.200;2024-03-07T06:51:17;22.23;;;11.90;;
8007;SDS011;4049;49.468;11.200;2024-03-07T06:53:46;19.70;;;11.27;;
8007;SDS011;4049;49.468;11.200;2024-03-07T06:56:12;24.13;;;13.00;;
8007;SDS011;4049;49.468;11.200;2024-03-07T06:58:41;27.10;;;12.43;;
8007;SDS011;4049;49.468;11.200;2024-03-07T07:01:11;34.90;;;16.43;;
8007;SDS011;4049;49.468;11.200;2024-03-07T07:03:40;33.00;;;16.53;;
8007;SDS011;4049;49.468;11.200;2024-03-07T07:06:08;25.03;;;12.97;;
8007;SDS011;4049;49.468;11.200;2024-03-07T07:08:35;22.90;;;12.00;;
8007;SDS011;4049;49.468;11.200;2024-03-07T07:11:04;26.40;;;12.83;;
8007;SDS011;4049;49.468;11.200;2024-03-07T07:13:31;22.63;;;13.03;;
8007;SDS011;4049;49.468;11.200;2024-03-07T07:15:58;21.77;;;12.17;;
8007;SDS011;4049;49.468;11.200;2024-03-07T07:18:24;21.93;;;12.03;;
8007;SDS011;4049;49.468;11.200;2024-03-07T07:20:51;24.57;;;12.27;;
8007;SDS011;4049;49.468;11.200;2024-03-07T07:23:18;20.50;;;12.20;;
8007;SDS011;4049;49.468;11.200;2024-03-07T07:25:46;23.40;;;11.43;;
8007;SDS011;4049;49.468;11.200;2024-03-07T07:28:14;19.90;;;11.40;;
8007;SDS011;4049;49.468;11.200;2024-03-07T07:30:42;21.27;;;11.53;;
8007;SDS011;4049;49.468;11.200;2024-03-07T07:33:08;22.13;;;11.70;;
8007;SDS011;4049;49.468;11.200;2024-03-07T07:35:35;21.73;;;11.33;;
8007;SDS011;4049;49.468;11.200;2024-03-07T07:38:02;20.23;;;11.63;;
8007;SDS011;4049;49.468;11.200;2024-03-07T07:40:32;24.00;;;11.63;;
8007;SDS011;4049;49.468;11.200;2024-03-07T07:42:59;19.23;;;10.90;;
8007;SDS011;4049;49.468;11.200;2024-03-07T07:45:28;23.07;;;12.27;;
8007;SDS011;4049;49.468;11.200;2024-03-07T07:47:54;22.00;;;12.20;;
8007;SDS011;4049;49.468;11.200;2024-03-07T07:50:22;22.07;;;11.63;;
8007;SDS011;4049;49.468;11.200;2024-03-07T07:52:50;22.90;;;12.50;;
8007;SDS011;4049;49.468;11.200;2024-03-07T07:55:19;25.27;;;13.17;;
8007;SDS011;4049;49.468;11.200;2024-03-07T07:57:47;25.93;;;13.57;;
8007;SDS011;4049;49.468;11.200;2024-03-07T08:00:17;22.47;;;12.80;;
8007;SDS011;4049;49.468;11.200;2024-03-07T08:02:53;25.57;;;12.70;;
8007;SDS011;4049;49.468;11.200;2024-03-07T08:05:21;23.57;;;12.60;;
8007;SDS011;4049;49.468;11.200;2024-03-07T08:07:49;25.40;;;13.80;;
8007;SDS011;4049;49.468;11.200;2024-03-07T08:10:17;23.80;;;13.03;;
8007;SDS011;4049;49.468;11.200;2024-03-07T08:12:45;24.33;;;13.17;;
8007;SDS011;4049;49.468;11.200;2024-03-07T08:15:13;21.37;;;12.53;;
8007;SDS011;4049;49.468;11.200;2024-03-07T08:17:41;26.17;;;13.20;;
8007;SDS011;4049;49.468;11.200;2024-03-07T08:20:13;20.90;;;12.37;;
8007;SDS011;4049;49.468;11.200;2024-03-07T08:22:41;21.27;;;12.63;;
8007;SDS011;4049;49.468;11.200;2024-03-07T08:25:09;31.03;;;13.97;;
8007;SDS011;4049;49.468;11.200;2024-03-07T08:27:37;34.33;;;15.57;;
8007;SDS011;4049;49.468;11.200;2024-03-07T08:30:05;28.50;;;14.47;;
8007;SDS011;4049;49.468;11.200;2024-03-07T08:32:38;27.00;;;13.40;;
8007;SDS011;4049;49.468;11.200;2024-03-07T08:35:05;26.57;;;13.20;;
8007;SDS011;4049;49.468;11.200;2024-03-07T08:37:36;25.87;;;13.67;;
8007;SDS011;4049;49.468;11.200;2024-03-07T08:40:03;22.17;;;12.07;;
8007;SDS011;4049;49.468;11.200;2024-03-07T08:42:32;23.33;;;13.37;;
8007;SDS011;4049;49.468;11.200;2024-03-07T08:45:00;24.37;;;11.97;;
8007;SDS011;4049;49.468;11.200;2024-03-07T08:47:29;22.70;;;12.47;;
8007;SDS011;4049;49.468;11.200;2024-03-07T08:49:56;21.83;;;12.13;;
8007;SDS011;4049;49.468;11.200;2024-03-07T08:52:23;23.20;;;13.07;;
8007;SDS011;4049;49.468;11.200;2024-03-07T08:54:53;27.87;;;11.77;;
8007;SDS011;4049;49.468;11.200;2024-03-07T08:57:20;21.90;;;12.30;;
8007;SDS011;4049;49.468;11.200;2024-03-07T08:59:47;22.67;;;11.53;;
8007;SDS011;4049;49.468;11.200;2024-03-07T09:02:14;20.43;;;12.10;;
8007;SDS011;4049;49.468;11.200;2024-03-07T09:04:41;22.53;;;12.50;;
8007;SDS011;4049;49.468;11.200;2024-03-07T09:07:08;24.07;;;12.73;;
8007;SDS011;4049;49.468;11.200;2024-03-07T09:09:35;23.03;;;12.60;;
8007;SDS011;4049;49.468;11.200;2024-03-07T09:12:03;21.07;;;12.03;;
8007;SDS011;4049;49.468;11.200;2024-03-07T09:14:31;18.60;;;11.23;;
8007;SDS011;4049;49.468;11.200;2024-03-07T09:16:58;17.63;;;10.97;;
8007;SDS011;4049;49.468;11.200;2024-03-07T09:19:24;19.30;;;10.43;;
8007;SDS011;4049;49.468;11.200;2024-03-07T09:21:52;18.87;;;10.60;;
8007;SDS011;4049;49.468;11.200;2024-03-07T09:24:19;18.43;;;11.30;;
8007;SDS011;4049;49.468;11.200;2024-03-07T09:26:47;18.80;;;10.43;;
8007;SDS011;4049;49.468;11.200;2024-03-07T09:29:16;19.03;;;11.03;;
8007;SDS011;4049;49.468;11.200;2024-03-07T09:31:43;17.03;;;10.20;;
8007;SDS011;4049;49.468;11.200;2024-03-07T09:34:10;19.37;;;10.97;;
8007;SDS011;4049;49.468;11.200;2024-03-07T09:36:37;18.70;;;10.73;;
8007;SDS011;4049;49.468;11.200;2024-03-07T09:39:06;19.77;;;10.83;;
8007;SDS011;4049;49.468;11.200;2024-03-07T09:41:34;18.30;;;10.10;;
8007;SDS011;4049;49.468;11.200;2024-03-07T09:44:01;18.03;;;10.70;;
8007;SDS011;4049;49.468;11.200;2024-03-07T09:46:31;18.43;;;9.87;;
8007;SDS011;4049;49.468;11.200;2024-03-07T09:48:58;16.93;;;10.20;;
8007;SDS011;4049;49.468;11.200;2024-03-07T09:51:26;21.90;;;11.40;;
8007;SDS011;4049;49.468;11.200;2024-03-07T09:53:54;17.20;;;10.50;;
8007;SDS011;4049;49.468;11.200;2024-03-07T09:56:24;19.30;;;10.90;;
8007;SDS011;4049;49.468;11.200;2024-03-07T09:58:53;15.73;;;10.87;;
8007;SDS011;4049;49.468;11.200;2024-03-07T10:01:25;17.43;;;10.53;;
8007;SDS011;4049;49.468;11.200;2024-03-07T10:03:57;19.50;;;10.57;;
8007;SDS011;4049;49.468;11.200;2024-03-07T10:06:26;17.80;;;10.70;;
8007;SDS011;4049;49.468;11.200;2024-03-07T10:08:54;18.83;;;10.27;;
8007;SDS011;4049;49.468;11.200;2024-03-07T10:11:23;15.97;;;10.40;;
8007;SDS011;4049;49.468;11.200;2024-03-07T10:13:50;19.60;;;10.77;;
8007;SDS011;4049;49.468;11.200;2024-03-07T10:16:18;16.83;;;10.03;;
8007;SDS011;4049;49.468;11.200;2024-03-07T10:18:45;14.97;;;10.43;;
8007;SDS011;4049;49.468;11.200;2024-03-07T10:21:18;16.53;;;9.87;;
8007;SDS011;4049;49.468;11.200;2024-03-07T10:23:45;16.33;;;9.53;;
8007;SDS011;4049;49.468;11.200;2024-03-07T10:26:12;16.00;;;9.53;;
8007;SDS011;4049;49.468;11.200;2024-03-07T10:28:39;13.93;;;9.10;;
8007;SDS011;4049;49.468;11.200;2024-03-07T10:31:06;17.90;;;10.77;;
8007;SDS011;4049;49.468;11.200;2024-03-07T10:33:36;17.87;;;10.53;;
8007;SDS011;4049;49.468;11.200;2024-03-07T10:36:04;23.33;;;11.17;;
8007;SDS011;4049;49.468;11.200;2024-03-07T10:38:36;15.60;;;10.23;;
8007;SDS011;4049;49.468;11.200;2024-03-07T10:41:03;17.97;;;10.57;;
8007;SDS011;4049;49.468;11.200;2024-03-07T10:43:34;17.20;;;9.60;;
8007;SDS011;4049;49.468;11.200;2024-03-07T10:46:07;20.03;;;11.63;;
8007;SDS011;4049;49.468;11.200;2024-03-07T10:48:37;17.47;;;11.13;;
8007;SDS011;4049;49.468;11.200;2024-03-07T10:51:06;17.37;;;10.70;;
8007;SDS011;4049;49.468;11.200;2024-03-07T10:53:45;19.67;;;11.53;;
8007;SDS011;4049;49.468;11.200;2024-03-07T10:56:27;18.20;;;11.03;;
8007;SDS011;4049;49.468;11.200;2024-03-07T10:59:01;20.87;;;12.23;;
8007;SDS011;4049;49.468;11.200;2024-03-07T11:01:35;16.23;;;10.50;;
8007;SDS011;4049;49.468;11.200;2024-03-07T11:04:09;22.00;;;12.33;;
8007;SDS011;4049;49.468;11.200;2024-03-07T11:06:40;17.07;;;10.37;;
8007;SDS011;4049;49.468;11.200;2024-03-07T11:09:08;16.60;;;10.20;;
8007;SDS011;4049;49.468;11.200;2024-03-07T11:11:36;15.57;;;9.77;;
8007;SDS011;4049;49.468;11.200;2024-03-07T11:14:05;16.80;;;10.00;;
8007;SDS011;4049;49.468;11.200;2024-03-07T11:16:35;16.30;;;10.27;;
8007;SDS011;4049;49.468;11.200;2024-03-07T11:19:19;13.30;;;8.73;;
8007;SDS011;4049;49.468;11.200;2024-03-07T11:21:51;14.67;;;8.33;;
8007;SDS011;4049;49.468;11.200;2024-03-07T11:24:24;13.50;;;8.67;;
8007;SDS011;4049;49.468;11.200;2024-03-07T11:26:53;13.23;;;9.07;;
8007;SDS011;4049;49.468;11.200;2024-03-07T11:29:43;18.03;;;10.17;;
8007;SDS011;4049;49.468;11.200;2024-03-07T11:32:17;16.27;;;10.00;;
8007;SDS011;4049;49.468;11.200;2024-03-07T11:34:46;15.47;;;9.37;;
8007;SDS011;4049;49.468;11.200;2024-03-07T11:37:17;14.67;;;9.03;;
8007;SDS011;4049;49.468;11.200;2024-03-07T11:39:49;15.20;;;8.63;;
8007;SDS011;4049;49.468;11.200;2024-03-07T11:42:24;15.43;;;8.80;;
8007;SDS011;4049;49.468;11.200;2024-03-07T11:44:52;14.47;;;9.20;;
8007;SDS011;4049;49.468;11.200;2024-03-07T11:47:21;17.97;;;8.97;;
8007;SDS011;4049;49.468;11.200;2024-03-07T11:49:49;14.17;;;9.10;;
8007;SDS011;4049;49.468;11.200;2024-03-07T11:52:17;13.43;;;8.60;;
8007;SDS011;4049;49.468;11.200;2024-03-07T11:54:44;13.20;;;9.07;;
8007;SDS011;4049;49.468;11.200;2024-03-07T11:57:16;13.47;;;8.53;;
8007;SDS011;4049;49.468;11.200;2024-03-07T11:59:44;21.47;;;8.83;;
8007;SDS011;4049;49.468;11.200;2024-03-07T12:02:17;14.83;;;8.77;;
8007;SDS011;4049;49.468;11.200;2024-03-07T12:04:46;13.03;;;8.73;;
8007;SDS011;4049;49.468;11.200;2024-03-07T12:07:13;13.87;;;7.80;;
8007;SDS011;4049;49.468;11.200;2024-03-07T12:09:42;11.83;;;7.97;;
8007;SDS011;4049;49.468;11.200;2024-03-07T12:12:16;14.50;;;8.73;;
8007;SDS011;4049;49.468;11.200;2024-03-07T12:14:46;11.50;;;7.87;;
8007;SDS011;4049;49.468;11.200;2024-03-07T12:17:13;13.80;;;8.80;;
8007;SDS011;4049;49.468;11.200;2024-03-07T12:19:41;12.97;;;8.20;;
8007;SDS011;4049;49.468;11.200;2024-03-07T12:22:09;13.57;;;8.03;;
8007;SDS011;4049;49.468;11.200;2024-03-07T12:24:38;14.73;;;9.23;;
8007;SDS011;4049;49.468;11.200;2024-03-07T12:27:06;12.60;;;8.00;;
8007;SDS011;4049;49.468;11.200;2024-03-07T12:29:36;13.30;;;8.13;;
8007;SDS011;4049;49.468;11.200;2024-03-07T12:32:04;13.67;;;8.70;;
8007;SDS011;4049;49.468;11.200;2024-03-07T12:34:33;13.07;;;7.87;;
8007;SDS011;4049;49.468;11.200;2024-03-07T12:37:02;12.20;;;8.97;;
8007;SDS011;4049;49.468;11.200;2024-03-07T12:39:31;12.57;;;7.87;;
8007;SDS011;4049;49.468;11.200;2024-03-07T12:42:03;12.17;;;8.03;;
8007;SDS011;4049;49.468;11.200;2024-03-07T12:44:41;10.87;;;7.07;;
8007;SDS011;4049;49.468;11.200;2024-03-07T12:47:10;20.70;;;11.20;;
8007;SDS011;4049;49.468;11.200;2024-03-07T12:49:38;13.90;;;9.00;;
8007;SDS011;4049;49.468;11.200;2024-03-07T12:52:05;20.73;;;11.10;;
8007;SDS011;4049;49.468;11.200;2024-03-07T12:54:34;22.70;;;13.13;;
8007;SDS011;4049;49.468;11.200;2024-03-07T12:57:02;14.40;;;9.23;;
8007;SDS011;4049;49.468;11.200;2024-03-07T12:59:30;15.43;;;9.40;;
8007;SDS011;4049;49.468;11.200;2024-03-07T13:01:59;16.60;;;10.27;;
8007;SDS011;4049;49.468;11.200;2024-03-07T13:04:26;18.23;;;12.33;;
8007;SDS011;4049;49.468;11.200;2024-03-07T13:06:53;18.43;;;11.43;;
8007;SDS011;4049;49.468;11.200;2024-03-07T13:09:24;13.30;;;8.47;;
8007;SDS011;4049;49.468;11.200;2024-03-07T13:11:52;13.13;;;8.40;;
8007;SDS011;4049;49.468;11.200;2024-03-07T13:14:19;13.40;;;8.47;;
8007;SDS011;4049;49.468;11.200;2024-03-07T13:16:46;15.63;;;9.23;;
8007;SDS011;4049;49.468;11.200;2024-03-07T13:19:14;13.27;;;8.23;;
8007;SDS011;4049;49.468;11.200;2024-03-07T13:21:45;15.13;;;10.97;;
8007;SDS011;4049;49.468;11.200;2024-03-07T13:24:13;16.97;;;11.43;;
8007;SDS011;4049;49.468;11.200;2024-03-07T13:26:40;15.93;;;11.13;;
8007;SDS011;4049;49.468;11.200;2024-03-07T13:29:09;18.63;;;11.43;;
8007;SDS011;4049;49.468;11.200;2024-03-07T13:31:36;15.97;;;9.43;;
8007;SDS011;4049;49.468;11.200;2024-03-07T13:34:03;12.83;;;8.57;;
8007;SDS011;4049;49.468;11.200;2024-03-07T13:36:31;18.80;;;11.87;;
8007;SDS011;4049;49.468;11.200;2024-03-07T13:38:58;14.20;;;9.83;;
8007;SDS011;4049;49.468;11.200;2024-03-07T13:41:25;16.13;;;9.97;;
8007;SDS011;4049;49.468;11.200;2024-03-07T13:43:53;14.23;;;8.93;;
8007;SDS011;4049;49.468;11.200;2024-03-07T13:46:20;16.33;;;9.60;;
8007;SDS011;4049;49.468;11.200;2024-03-07T13:48:47;13.43;;;8.80;;
8007;SDS011;4049;49.468;11.200;2024-03-07T13:51:14;17.20;;;9.23;;
8007;SDS011;4049;49.468;11.200;2024-03-07T13:53:43;16.10;;;8.93;;
8007;SDS011;4049;49.468;11.200;2024-03-07T13:56:33;16.20;;;9.43;;
8007;SDS011;4049;49.468;11.200;2024-03-07T14:02:22;17.50;;;10.37;;
8007;SDS011;4049;49.468;11.200;2024-03-07T14:05:13;23.60;;;10.77;;
8007;SDS011;4049;49.468;11.200;2024-03-07T14:13:53;15.40;;;9.73;;
8007;SDS011;4049;49.468;11.200;2024-03-07T14:16:40;15.30;;;9.33;;
8007;SDS011;4049;49.468;11.200;2024-03-07T14:19:42;15.27;;;9.00;;
8007;SDS011;4049;49.468;11.200;2024-03-07T14:22:54;15.97;;;9.43;;
8007;SDS011;4049;49.468;11.200;2024-03-07T14:25:39;16.30;;;9.23;;
8007;SDS011;4049;49.468;11.200;2024-03-07T14:28:22;14.90;;;8.93;;
8007;SDS011;4049;49.468;11.200;2024-03-07T14:31:11;16.70;;;9.50;;
8007;SDS011;4049;49.468;11.200;2024-03-07T14:33:47;17.23;;;9.73;;
8007;SDS011;4049;49.468;11.200;2024-03-07T14:36:23;20.00;;;11.07;;
8007;SDS011;4049;49.468;11.200;2024-03-07T14:39:02;16.13;;;10.10;;
8007;SDS011;4049;49.468;11.200;2024-03-07T14:41:40;18.83;;;10.50;;
8007;SDS011;4049;49.468;11.200;2024-03-07T14:44:14;19.10;;;11.20;;
8007;SDS011;4049;49.468;11.200;2024-03-07T14:46:43;17.47;;;11.10;;
8007;SDS011;4049;49.468;11.200;2024-03-07T14:49:10;19.37;;;11.67;;
8007;SDS011;4049;49.468;11.200;2024-03-07T14:51:41;20.37;;;11.00;;
8007;SDS011;4049;49.468;11.200;2024-03-07T14:54:08;19.97;;;11.93;;
8007;SDS011;4049;49.468;11.200;2024-03-07T14:56:36;19.73;;;12.07;;
8007;SDS011;4049;49.468;11.200;2024-03-07T14:59:03;20.03;;;10.97;;
8007;SDS011;4049;49.468;11.200;2024-03-07T15:01:32;19.30;;;11.70;;